sensor_id;sensor_type;location;lat;lon;timestamp;P1;durP1;ratioP1;P2;durP2;ratioP2
17631;SDS011;8934;51.194;17.150;2023-10-09T00:01:38;6.50;;;2.65;;
17631;SDS011;8934;51.194;17.150;2023-10-09T00:04:30;7.05;;;2.90;;
17631;SDS011;8934;51.194;17.150;2023-10-09T00:07:18;5.65;;;3.00;;
17631;SDS011;8934;51.194;17.150;2023-10-09T00:10:09;4.82;;;3.08;;
17631;SDS011;8934;51.194;17.150;2023-10-09T00:12:58;8.00;;;3.60;;
17631;SDS011;8934;51.194;17.150;2023-10-09T00:15:46;6.78;;;3.35;;
17631;SDS011;8934;51.194;17.150;2023-10-09T00:18:38;8.30;;;3.65;;
17631;SDS011;8934;51.194;17.150;2023-10-09T00:21:33;7.03;;;2.88;;
17631;SDS011;8934;51.194;17.150;2023-10-09T00:24:23;6.15;;;3.60;;
17631;SDS011;8934;51.194;17.150;2023-10-09T00:27:11;11.15;;;3.63;;
17631;SDS011;8934;51.194;17.150;2023-10-09T00:29:59;7.18;;;3.03;;
17631;SDS011;8934;51.194;17.150;2023-10-09T00:32:52;8.35;;;2.75;;
17631;SDS011;8934;51.194;17.150;2023-10-09T00:35:46;5.18;;;3.45;;
17631;SDS011;8934;51.194;17.150;2023-10-09T00:38:41;5.30;;;3.40;;
17631;SDS011;8934;51.194;17.150;2023-10-09T00:41:39;5.68;;;1.98;;
17631;SDS011;8934;51.194;17.150;2023-10-09T00:44:27;9.50;;;3.55;;
17631;SDS011;8934;51.194;17.150;2023-10-09T00:47:23;4.75;;;2.35;;
17631;SDS011;8934;51.194;17.150;2023-10-09T00:50:20;6.25;;;3.30;;
17631;SDS011;8934;51.194;17.150;2023-10-09T00:53:09;4.10;;;2.80;;
17631;SDS011;8934;51.194;17.150;2023-10-09T00:56:05;4.10;;;2.67;;
17631;SDS011;8934;51.194;17.150;2023-10-09T00:59:04;7.22;;;3.50;;
17631;SDS011;8934;51.194;17.150;2023-10-09T01:02:00;6.45;;;3.50;;
17631;SDS011;8934;51.194;17.150;2023-10-09T01:04:51;4.60;;;2.47;;
17631;SDS011;8934;51.194;17.150;2023-10-09T01:07:39;8.43;;;2.88;;
17631;SDS011;8934;51.194;17.150;2023-10-09T01:10:27;7.10;;;2.50;;
17631;SDS011;8934;51.194;17.150;2023-10-09T01:13:22;4.80;;;2.90;;
17631;SDS011;8934;51.194;17.150;2023-10-09T01:16:24;6.72;;;2.47;;
17631;SDS011;8934;51.194;17.150;2023-10-09T01:19:12;10.18;;;4.10;;
17631;SDS011;8934;51.194;17.150;2023-10-09T01:22:10;8.20;;;3.35;;
17631;SDS011;8934;51.194;17.150;2023-10-09T01:25:01;5.57;;;3.00;;
17631;SDS011;8934;51.194;17.150;2023-10-09T01:27:51;6.70;;;3.28;;
17631;SDS011;8934;51.194;17.150;2023-10-09T01:30:39;6.78;;;3.50;;
17631;SDS011;8934;51.194;17.150;2023-10-09T01:33:27;5.80;;;2.72;;
17631;SDS011;8934;51.194;17.150;2023-10-09T01:36:16;3.65;;;3.08;;
17631;SDS011;8934;51.194;17.150;2023-10-09T01:39:17;5.85;;;3.63;;
17631;SDS011;8934;51.194;17.150;2023-10-09T01:42:11;3.67;;;3.17;;
17631;SDS011;8934;51.194;17.150;2023-10-09T01:45:09;4.70;;;2.63;;
17631;SDS011;8934;51.194;17.150;2023-10-09T01:48:13;5.05;;;1.95;;
17631;SDS011;8934;51.194;17.150;2023-10-09T01:51:12;4.00;;;2.45;;
17631;SDS011;8934;51.194;17.150;2023-10-09T01:54:03;6.03;;;2.92;;
17631;SDS011;8934;51.194;17.150;2023-10-09T01:56:51;6.28;;;3.75;;
17631;SDS011;8934;51.194;17.150;2023-10-09T01:59:41;7.13;;;3.95;;
17631;SDS011;8934;51.194;17.150;2023-10-09T02:02:31;8.02;;;3.05;;
17631;SDS011;8934;51.194;17.150;2023-10-09T02:05:20;6.07;;;3.45;;
17631;SDS011;8934;51.194;17.150;2023-10-09T02:08:12;6.28;;;3.15;;
17631;SDS011;8934;51.194;17.150;2023-10-09T02:11:02;5.53;;;2.22;;
17631;SDS011;8934;51.194;17.150;2023-10-09T02:13:50;5.28;;;2.65;;
17631;SDS011;8934;51.194;17.150;2023-10-09T02:16:48;8.13;;;3.97;;
17631;SDS011;8934;51.194;17.150;2023-10-09T02:19:54;5.67;;;3.50;;
17631;SDS011;8934;51.194;17.150;2023-10-09T02:22:43;8.30;;;3.38;;
17631;SDS011;8934;51.194;17.150;2023-10-09T02:25:32;5.68;;;3.58;;
17631;SDS011;8934;51.194;17.150;2023-10-09T02:28:20;5.47;;;3.28;;
17631;SDS011;8934;51.194;17.150;2023-10-09T02:31:11;5.63;;;3.13;;
17631;SDS011;8934;51.194;17.150;2023-10-09T02:34:01;5.55;;;2.90;;
17631;SDS011;8934;51.194;17.150;2023-10-09T02:39:51;4.20;;;2.85;;
17631;SDS011;8934;51.194;17.150;2023-10-09T02:42:39;5.07;;;2.22;;
17631;SDS011;8934;51.194;17.150;2023-10-09T02:45:29;2.78;;;2.05;;
17631;SDS011;8934;51.194;17.150;2023-10-09T02:48:21;5.57;;;3.17;;
17631;SDS011;8934;51.194;17.150;2023-10-09T02:51:13;7.60;;;3.53;;
17631;SDS011;8934;51.194;17.150;2023-10-09T02:54:16;3.70;;;2.47;;
17631;SDS011;8934;51.194;17.150;2023-10-09T02:57:21;5.28;;;3.65;;
17631;SDS011;8934;51.194;17.150;2023-10-09T03:00:10;5.20;;;2.13;;
17631;SDS011;8934;51.194;17.150;2023-10-09T03:03:05;6.68;;;2.80;;
17631;SDS011;8934;51.194;17.150;2023-10-09T03:05:53;3.10;;;2.38;;
17631;SDS011;8934;51.194;17.150;2023-10-09T03:08:42;7.47;;;2.78;;
17631;SDS011;8934;51.194;17.150;2023-10-09T03:11:33;4.40;;;2.80;;
17631;SDS011;8934;51.194;17.150;2023-10-09T03:14:22;5.22;;;2.45;;
17631;SDS011;8934;51.194;17.150;2023-10-09T03:17:12;2.70;;;2.03;;
17631;SDS011;8934;51.194;17.150;2023-10-09T03:20:02;10.18;;;3.30;;
17631;SDS011;8934;51.194;17.150;2023-10-09T03:22:57;5.55;;;2.30;;
17631;SDS011;8934;51.194;17.150;2023-10-09T03:25:49;4.85;;;2.03;;
17631;SDS011;8934;51.194;17.150;2023-10-09T03:28:40;4.47;;;2.80;;
17631;SDS011;8934;51.194;17.150;2023-10-09T03:31:28;10.25;;;3.30;;
17631;SDS011;8934;51.194;17.150;2023-10-09T03:34:17;5.00;;;2.22;;
17631;SDS011;8934;51.194;17.150;2023-10-09T03:37:05;6.45;;;1.58;;
17631;SDS011;8934;51.194;17.150;2023-10-09T03:40:07;4.32;;;2.10;;
17631;SDS011;8934;51.194;17.150;2023-10-09T03:43:03;4.53;;;1.52;;
17631;SDS011;8934;51.194;17.150;2023-10-09T03:45:51;3.25;;;2.03;;
17631;SDS011;8934;51.194;17.150;2023-10-09T03:48:39;3.45;;;2.25;;
17631;SDS011;8934;51.194;17.150;2023-10-09T03:51:29;4.55;;;2.33;;
17631;SDS011;8934;51.194;17.150;2023-10-09T03:54:18;4.18;;;2.30;;
17631;SDS011;8934;51.194;17.150;2023-10-09T03:57:07;7.57;;;3.17;;
17631;SDS011;8934;51.194;17.150;2023-10-09T03:59:57;3.97;;;2.28;;
17631;SDS011;8934;51.194;17.150;2023-10-09T04:02:55;4.38;;;2.42;;
17631;SDS011;8934;51.194;17.150;2023-10-09T04:05:44;4.97;;;1.80;;
17631;SDS011;8934;51.194;17.150;2023-10-09T04:08:32;5.07;;;2.33;;
17631;SDS011;8934;51.194;17.150;2023-10-09T04:11:21;3.67;;;2.55;;
17631;SDS011;8934;51.194;17.150;2023-10-09T04:14:10;8.60;;;2.55;;
17631;SDS011;8934;51.194;17.150;2023-10-09T04:17:10;3.22;;;1.63;;
17631;SDS011;8934;51.194;17.150;2023-10-09T04:20:18;3.53;;;1.75;;
17631;SDS011;8934;51.194;17.150;2023-10-09T04:23:54;4.95;;;1.83;;
17631;SDS011;8934;51.194;17.150;2023-10-09T04:27:08;3.63;;;2.10;;
17631;SDS011;8934;51.194;17.150;2023-10-09T04:29:56;3.40;;;1.90;;
17631;SDS011;8934;51.194;17.150;2023-10-09T04:32:47;4.10;;;2.08;;
17631;SDS011;8934;51.194;17.150;2023-10-09T04:35:35;6.43;;;1.77;;
17631;SDS011;8934;51.194;17.150;2023-10-09T04:38:25;2.78;;;1.33;;
17631;SDS011;8934;51.194;17.150;2023-10-09T04:41:16;6.22;;;2.05;;
17631;SDS011;8934;51.194;17.150;2023-10-09T04:44:13;2.63;;;1.85;;
17631;SDS011;8934;51.194;17.150;2023-10-09T04:47:06;1.65;;;1.55;;
17631;SDS011;8934;51.194;17.150;2023-10-09T04:50:09;2.38;;;1.10;;
17631;SDS011;8934;51.194;17.150;2023-10-09T04:53:00;3.60;;;1.10;;
17631;SDS011;8934;51.194;17.150;2023-10-09T04:56:08;2.20;;;0.93;;
17631;SDS011;8934;51.194;17.150;2023-10-09T04:59:01;1.65;;;1.55;;
17631;SDS011;8934;51.194;17.150;2023-10-09T05:01:53;4.07;;;1.95;;
17631;SDS011;8934;51.194;17.150;2023-10-09T05:04:51;3.90;;;1.30;;
17631;SDS011;8934;51.194;17.150;2023-10-09T05:08:00;6.22;;;2.00;;
17631;SDS011;8934;51.194;17.150;2023-10-09T05:11:04;2.83;;;1.42;;
17631;SDS011;8934;51.194;17.150;2023-10-09T05:14:05;0.98;;;0.80;;
17631;SDS011;8934;51.194;17.150;2023-10-09T05:16:57;2.25;;;1.23;;
17631;SDS011;8934;51.194;17.150;2023-10-09T05:19:50;2.58;;;1.48;;
17631;SDS011;8934;51.194;17.150;2023-10-09T05:23:13;2.58;;;1.38;;
17631;SDS011;8934;51.194;17.150;2023-10-09T05:26:11;2.42;;;1.33;;
17631;SDS011;8934;51.194;17.150;2023-10-09T05:29:23;5.43;;;1.45;;
17631;SDS011;8934;51.194;17.150;2023-10-09T05:32:36;1.63;;;0.82;;
17631;SDS011;8934;51.194;17.150;2023-10-09T05:35:34;3.47;;;0.93;;
17631;SDS011;8934;51.194;17.150;2023-10-09T05:38:52;3.33;;;1.13;;
17631;SDS011;8934;51.194;17.150;2023-10-09T05:42:02;2.83;;;1.20;;
17631;SDS011;8934;51.194;17.150;2023-10-09T05:44:55;2.22;;;1.23;;
17631;SDS011;8934;51.194;17.150;2023-10-09T05:48:16;3.30;;;1.35;;
17631;SDS011;8934;51.194;17.150;2023-10-09T05:51:21;2.70;;;1.83;;
17631;SDS011;8934;51.194;17.150;2023-10-09T05:54:28;3.75;;;2.55;;
17631;SDS011;8934;51.194;17.150;2023-10-09T05:57:30;2.58;;;1.48;;
17631;SDS011;8934;51.194;17.150;2023-10-09T06:00:35;4.95;;;1.67;;
17631;SDS011;8934;51.194;17.150;2023-10-09T06:03:41;4.55;;;1.65;;
17631;SDS011;8934;51.194;17.150;2023-10-09T06:06:35;3.55;;;1.58;;
17631;SDS011;8934;51.194;17.150;2023-10-09T06:09:32;2.67;;;1.17;;
17631;SDS011;8934;51.194;17.150;2023-10-09T06:12:34;2.53;;;1.02;;
17631;SDS011;8934;51.194;17.150;2023-10-09T06:15:40;5.15;;;1.40;;
17631;SDS011;8934;51.194;17.150;2023-10-09T06:18:54;1.40;;;0.73;;
17631;SDS011;8934;51.194;17.150;2023-10-09T06:21:54;1.65;;;0.90;;
17631;SDS011;8934;51.194;17.150;2023-10-09T06:25:27;1.38;;;0.77;;
17631;SDS011;8934;51.194;17.150;2023-10-09T06:28:19;0.50;;;0.45;;
17631;SDS011;8934;51.194;17.150;2023-10-09T06:31:19;2.75;;;1.65;;
17631;SDS011;8934;51.194;17.150;2023-10-09T06:34:32;4.18;;;1.55;;
17631;SDS011;8934;51.194;17.150;2023-10-09T06:37:21;2.88;;;0.75;;
17631;SDS011;8934;51.194;17.150;2023-10-09T06:40:23;1.27;;;0.80;;
17631;SDS011;8934;51.194;17.150;2023-10-09T06:43:30;1.95;;;1.08;;
17631;SDS011;8934;51.194;17.150;2023-10-09T06:46:22;1.63;;;0.88;;
17631;SDS011;8934;51.194;17.150;2023-10-09T06:49:30;2.80;;;1.67;;
17631;SDS011;8934;51.194;17.150;2023-10-09T06:52:19;1.80;;;1.50;;
17631;SDS011;8934;51.194;17.150;2023-10-09T06:55:27;2.10;;;1.60;;
17631;SDS011;8934;51.194;17.150;2023-10-09T06:58:20;7.63;;;1.85;;
17631;SDS011;8934;51.194;17.150;2023-10-09T07:01:14;1.60;;;1.50;;
17631;SDS011;8934;51.194;17.150;2023-10-09T07:04:28;5.20;;;2.05;;
17631;SDS011;8934;51.194;17.150;2023-10-09T07:07:30;2.50;;;1.52;;
17631;SDS011;8934;51.194;17.150;2023-10-09T07:10:21;3.63;;;2.30;;
17631;SDS011;8934;51.194;17.150;2023-10-09T07:13:19;1.50;;;1.25;;
17631;SDS011;8934;51.194;17.150;2023-10-09T07:16:10;2.10;;;1.10;;
17631;SDS011;8934;51.194;17.150;2023-10-09T07:19:25;3.55;;;1.85;;
17631;SDS011;8934;51.194;17.150;2023-10-09T07:22:21;2.88;;;1.63;;
17631;SDS011;8934;51.194;17.150;2023-10-09T07:25:15;2.00;;;1.27;;
17631;SDS011;8934;51.194;17.150;2023-10-09T07:28:13;4.30;;;2.65;;
17631;SDS011;8934;51.194;17.150;2023-10-09T07:31:28;8.23;;;2.85;;
17631;SDS011;8934;51.194;17.150;2023-10-09T07:34:27;3.95;;;1.48;;
17631;SDS011;8934;51.194;17.150;2023-10-09T07:37:38;4.28;;;1.95;;
17631;SDS011;8934;51.194;17.150;2023-10-09T07:40:27;3.38;;;2.35;;
17631;SDS011;8934;51.194;17.150;2023-10-09T07:43:17;6.20;;;1.63;;
17631;SDS011;8934;51.194;17.150;2023-10-09T07:46:12;2.20;;;1.25;;
17631;SDS011;8934;51.194;17.150;2023-10-09T07:49:20;2.47;;;1.35;;
17631;SDS011;8934;51.194;17.150;2023-10-09T07:52:12;2.60;;;1.00;;
17631;SDS011;8934;51.194;17.150;2023-10-09T07:55:00;2.28;;;1.10;;
17631;SDS011;8934;51.194;17.150;2023-10-09T07:57:51;1.98;;;1.15;;
17631;SDS011;8934;51.194;17.150;2023-10-09T08:00:39;1.95;;;0.85;;
17631;SDS011;8934;51.194;17.150;2023-10-09T08:03:52;4.43;;;1.42;;
17631;SDS011;8934;51.194;17.150;2023-10-09T08:06:47;0.95;;;0.93;;
17631;SDS011;8934;51.194;17.150;2023-10-09T08:13:00;3.08;;;1.25;;
17631;SDS011;8934;51.194;17.150;2023-10-09T08:16:12;3.10;;;0.90;;
17631;SDS011;8934;51.194;17.150;2023-10-09T08:19:06;1.65;;;1.33;;
17631;SDS011;8934;51.194;17.150;2023-10-09T08:22:18;1.08;;;0.88;;
17631;SDS011;8934;51.194;17.150;2023-10-09T08:25:19;2.28;;;0.98;;
17631;SDS011;8934;51.194;17.150;2023-10-09T08:28:15;1.17;;;0.98;;
17631;SDS011;8934;51.194;17.150;2023-10-09T08:31:25;2.78;;;1.52;;
17631;SDS011;8934;51.194;17.150;2023-10-09T08:34:20;2.05;;;1.33;;
17631;SDS011;8934;51.194;17.150;2023-10-09T08:37:14;0.80;;;0.80;;
17631;SDS011;8934;51.194;17.150;2023-10-09T08:40:04;2.17;;;1.05;;
17631;SDS011;8934;51.194;17.150;2023-10-09T08:42:53;7.97;;;0.90;;
17631;SDS011;8934;51.194;17.150;2023-10-09T08:45:45;2.00;;;1.13;;
17631;SDS011;8934;51.194;17.150;2023-10-09T08:48:33;0.93;;;0.88;;
17631;SDS011;8934;51.194;17.150;2023-10-09T08:51:25;2.35;;;1.65;;
17631;SDS011;8934;51.194;17.150;2023-10-09T08:54:13;2.95;;;1.17;;
17631;SDS011;8934;51.194;17.150;2023-10-09T08:57:01;2.15;;;0.73;;
17631;SDS011;8934;51.194;17.150;2023-10-09T08:59:50;1.58;;;0.75;;
17631;SDS011;8934;51.194;17.150;2023-10-09T09:02:39;2.53;;;1.52;;
17631;SDS011;8934;51.194;17.150;2023-10-09T09:05:29;6.30;;;2.28;;
17631;SDS011;8934;51.194;17.150;2023-10-09T09:08:22;7.75;;;2.65;;
17631;SDS011;8934;51.194;17.150;2023-10-09T09:11:11;8.80;;;1.98;;
17631;SDS011;8934;51.194;17.150;2023-10-09T09:14:01;2.40;;;0.85;;
17631;SDS011;8934;51.194;17.150;2023-10-09T09:16:50;1.23;;;0.93;;
17631;SDS011;8934;51.194;17.150;2023-10-09T09:19:40;7.05;;;1.45;;
17631;SDS011;8934;51.194;17.150;2023-10-09T09:22:30;1.65;;;0.90;;
17631;SDS011;8934;51.194;17.150;2023-10-09T09:25:41;0.47;;;0.40;;
17631;SDS011;8934;51.194;17.150;2023-10-09T09:28:31;3.15;;;0.88;;
17631;SDS011;8934;51.194;17.150;2023-10-09T09:31:24;1.55;;;0.60;;
17631;SDS011;8934;51.194;17.150;2023-10-09T09:34:12;2.45;;;0.85;;
17631;SDS011;8934;51.194;17.150;2023-10-09T09:37:04;2.53;;;0.80;;
17631;SDS011;8934;51.194;17.150;2023-10-09T09:40:00;1.20;;;1.02;;
17631;SDS011;8934;51.194;17.150;2023-10-09T09:43:01;1.95;;;0.68;;
17631;SDS011;8934;51.194;17.150;2023-10-09T09:45:52;2.33;;;1.00;;
17631;SDS011;8934;51.194;17.150;2023-10-09T09:48:46;1.33;;;1.02;;
17631;SDS011;8934;51.194;17.150;2023-10-09T09:51:35;2.80;;;1.33;;
17631;SDS011;8934;51.194;17.150;2023-10-09T09:54:24;2.05;;;0.98;;
17631;SDS011;8934;51.194;17.150;2023-10-09T09:57:13;3.15;;;0.93;;
17631;SDS011;8934;51.194;17.150;2023-10-09T10:00:12;3.10;;;1.33;;
17631;SDS011;8934;51.194;17.150;2023-10-09T10:03:16;1.40;;;0.75;;
17631;SDS011;8934;51.194;17.150;2023-10-09T10:06:05;3.42;;;0.77;;
17631;SDS011;8934;51.194;17.150;2023-10-09T10:08:56;3.28;;;1.15;;
17631;SDS011;8934;51.194;17.150;2023-10-09T10:11:45;2.85;;;1.38;;
17631;SDS011;8934;51.194;17.150;2023-10-09T10:24:02;4.05;;;1.10;;
17631;SDS011;8934;51.194;17.150;2023-10-09T10:27:17;1.33;;;0.70;;
17631;SDS011;8934;51.194;17.150;2023-10-09T10:30:28;1.15;;;0.63;;
17631;SDS011;8934;51.194;17.150;2023-10-09T10:33:23;1.48;;;1.08;;
17631;SDS011;8934;51.194;17.150;2023-10-09T10:36:13;2.92;;;1.17;;
17631;SDS011;8934;51.194;17.150;2023-10-09T10:42:06;1.00;;;0.80;;
17631;SDS011;8934;51.194;17.150;2023-10-09T10:45:04;0.40;;;0.40;;
17631;SDS011;8934;51.194;17.150;2023-10-09T10:48:12;1.85;;;1.02;;
17631;SDS011;8934;51.194;17.150;2023-10-09T10:51:09;1.52;;;0.93;;
17631;SDS011;8934;51.194;17.150;2023-10-09T10:54:01;1.17;;;0.85;;
17631;SDS011;8934;51.194;17.150;2023-10-09T10:57:03;1.83;;;0.82;;
17631;SDS011;8934;51.194;17.150;2023-10-09T11:00:11;0.82;;;0.75;;
17631;SDS011;8934;51.194;17.150;2023-10-09T11:03:20;3.72;;;0.85;;
17631;SDS011;8934;51.194;17.150;2023-10-09T11:06:15;2.25;;;0.75;;
17631;SDS011;8934;51.194;17.150;2023-10-09T11:09:21;3.08;;;1.10;;
17631;SDS011;8934;51.194;17.150;2023-10-09T11:12:09;3.97;;;0.95;;
17631;SDS011;8934;51.194;17.150;2023-10-09T11:15:08;4.03;;;0.68;;
17631;SDS011;8934;51.194;17.150;2023-10-09T11:18:16;5.50;;;1.23;;
17631;SDS011;8934;51.194;17.150;2023-10-09T11:21:09;5.60;;;1.23;;
17631;SDS011;8934;51.194;17.150;2023-10-09T11:24:26;4.35;;;1.15;;
17631;SDS011;8934;51.194;17.150;2023-10-09T11:27:19;3.83;;;1.23;;
17631;SDS011;8934;51.194;17.150;2023-10-09T11:30:10;1.73;;;1.02;;
17631;SDS011;8934;51.194;17.150;2023-10-09T11:33:07;1.15;;;0.85;;
17631;SDS011;8934;51.194;17.150;2023-10-09T11:36:02;1.77;;;0.82;;
17631;SDS011;8934;51.194;17.150;2023-10-09T11:38:52;2.05;;;1.30;;
17631;SDS011;8934;51.194;17.150;2023-10-09T11:42:02;2.78;;;1.25;;
17631;SDS011;8934;51.194;17.150;2023-10-09T11:44:50;1.27;;;0.93;;
17631;SDS011;8934;51.194;17.150;2023-10-09T11:47:41;3.28;;;1.58;;
17631;SDS011;8934;51.194;17.150;2023-10-09T11:50:40;3.22;;;1.42;;
17631;SDS011;8934;51.194;17.150;2023-10-09T11:53:41;1.00;;;0.98;;
17631;SDS011;8934;51.194;17.150;2023-10-09T11:56:29;1.98;;;1.02;;
17631;SDS011;8934;51.194;17.150;2023-10-09T11:59:18;2.83;;;1.17;;
17631;SDS011;8934;51.194;17.150;2023-10-09T12:02:09;2.70;;;1.27;;
17631;SDS011;8934;51.194;17.150;2023-10-09T12:04:59;1.92;;;1.23;;
17631;SDS011;8934;51.194;17.150;2023-10-09T12:07:47;2.35;;;1.17;;
17631;SDS011;8934;51.194;17.150;2023-10-09T12:10:41;1.60;;;0.73;;
17631;SDS011;8934;51.194;17.150;2023-10-09T12:13:29;2.67;;;1.30;;
17631;SDS011;8934;51.194;17.150;2023-10-09T12:16:17;5.53;;;1.90;;
17631;SDS011;8934;51.194;17.150;2023-10-09T12:19:05;4.05;;;1.48;;
17631;SDS011;8934;51.194;17.150;2023-10-09T12:21:55;3.35;;;1.42;;
17631;SDS011;8934;51.194;17.150;2023-10-09T12:24:46;1.73;;;1.05;;
17631;SDS011;8934;51.194;17.150;2023-10-09T12:27:35;6.03;;;1.23;;
17631;SDS011;8934;51.194;17.150;2023-10-09T12:30:23;2.67;;;1.27;;
17631;SDS011;8934;51.194;17.150;2023-10-09T12:33:13;3.08;;;1.23;;
17631;SDS011;8934;51.194;17.150;2023-10-09T12:36:01;1.10;;;0.93;;
17631;SDS011;8934;51.194;17.150;2023-10-09T12:38:50;1.17;;;1.00;;
17631;SDS011;8934;51.194;17.150;2023-10-09T12:41:39;1.85;;;1.00;;
17631;SDS011;8934;51.194;17.150;2023-10-09T12:44:29;3.72;;;1.60;;
17631;SDS011;8934;51.194;17.150;2023-10-09T12:47:17;3.33;;;1.77;;
17631;SDS011;8934;51.194;17.150;2023-10-09T12:50:06;2.17;;;1.13;;
17631;SDS011;8934;51.194;17.150;2023-10-09T12:52:59;1.48;;;1.00;;
17631;SDS011;8934;51.194;17.150;2023-10-09T12:55:52;6.47;;;2.03;;
17631;SDS011;8934;51.194;17.150;2023-10-09T12:58:42;4.45;;;1.88;;
17631;SDS011;8934;51.194;17.150;2023-10-09T13:01:40;6.13;;;1.30;;
17631;SDS011;8934;51.194;17.150;2023-10-09T13:04:31;1.85;;;1.25;;
17631;SDS011;8934;51.194;17.150;2023-10-09T13:07:20;1.65;;;0.98;;
17631;SDS011;8934;51.194;17.150;2023-10-09T13:10:09;6.95;;;1.75;;
17631;SDS011;8934;51.194;17.150;2023-10-09T13:12:58;1.38;;;0.80;;
17631;SDS011;8934;51.194;17.150;2023-10-09T13:15:46;2.92;;;1.50;;
17631;SDS011;8934;51.194;17.150;2023-10-09T13:18:35;3.55;;;1.13;;
17631;SDS011;8934;51.194;17.150;2023-10-09T13:21:23;2.30;;;1.38;;
17631;SDS011;8934;51.194;17.150;2023-10-09T13:24:11;3.83;;;1.65;;
17631;SDS011;8934;51.194;17.150;2023-10-09T13:27:01;2.17;;;1.17;;
17631;SDS011;8934;51.194;17.150;2023-10-09T13:29:50;1.50;;;1.00;;
17631;SDS011;8934;51.194;17.150;2023-10-09T13:32:39;1.83;;;1.30;;
17631;SDS011;8934;51.194;17.150;2023-10-09T13:35:30;3.22;;;1.75;;
17631;SDS011;8934;51.194;17.150;2023-10-09T13:38:23;2.58;;;1.38;;
17631;SDS011;8934;51.194;17.150;2023-10-09T13:41:11;1.73;;;1.13;;
17631;SDS011;8934;51.194;17.150;2023-10-09T13:44:00;2.92;;;1.90;;
17631;SDS011;8934;51.194;17.150;2023-10-09T13:46:48;1.20;;;1.10;;
17631;SDS011;8934;51.194;17.150;2023-10-09T13:49:37;6.63;;;1.20;;
17631;SDS011;8934;51.194;17.150;2023-10-09T13:52:30;2.78;;;1.38;;
17631;SDS011;8934;51.194;17.150;2023-10-09T13:55:18;2.22;;;1.13;;
17631;SDS011;8934;51.194;17.150;2023-10-09T13:58:06;3.10;;;1.30;;
17631;SDS011;8934;51.194;17.150;2023-10-09T14:00:59;2.35;;;1.00;;
17631;SDS011;8934;51.194;17.150;2023-10-09T14:03:47;3.60;;;1.73;;
17631;SDS011;8934;51.194;17.150;2023-10-09T14:06:40;3.38;;;1.50;;
17631;SDS011;8934;51.194;17.150;2023-10-09T14:09:32;2.28;;;1.70;;
17631;SDS011;8934;51.194;17.150;2023-10-09T14:12:23;2.85;;;1.52;;
17631;SDS011;8934;51.194;17.150;2023-10-09T14:15:15;2.20;;;1.13;;
17631;SDS011;8934;51.194;17.150;2023-10-09T14:18:03;5.53;;;2.30;;
17631;SDS011;8934;51.194;17.150;2023-10-09T14:20:54;6.40;;;2.10;;
17631;SDS011;8934;51.194;17.150;2023-10-09T14:23:43;4.32;;;1.40;;
17631;SDS011;8934;51.194;17.150;2023-10-09T14:26:34;3.88;;;1.40;;
17631;SDS011;8934;51.194;17.150;2023-10-09T14:29:21;1.73;;;1.45;;
17631;SDS011;8934;51.194;17.150;2023-10-09T14:32:12;3.15;;;1.23;;
17631;SDS011;8934;51.194;17.150;2023-10-09T14:35:00;2.60;;;1.02;;
17631;SDS011;8934;51.194;17.150;2023-10-09T14:37:48;3.60;;;1.40;;
17631;SDS011;8934;51.194;17.150;2023-10-09T14:40:40;5.20;;;2.30;;
17631;SDS011;8934;51.194;17.150;2023-10-09T14:43:29;10.02;;;4.35;;
17631;SDS011;8934;51.194;17.150;2023-10-09T14:46:20;3.35;;;1.73;;
17631;SDS011;8934;51.194;17.150;2023-10-09T14:49:12;7.10;;;3.55;;
17631;SDS011;8934;51.194;17.150;2023-10-09T14:52:00;9.15;;;3.47;;
17631;SDS011;8934;51.194;17.150;2023-10-09T14:54:48;10.05;;;5.93;;
17631;SDS011;8934;51.194;17.150;2023-10-09T14:57:37;5.72;;;2.95;;
17631;SDS011;8934;51.194;17.150;2023-10-09T15:00:26;3.65;;;1.65;;
17631;SDS011;8934;51.194;17.150;2023-10-09T15:03:20;2.60;;;1.80;;
17631;SDS011;8934;51.194;17.150;2023-10-09T15:06:08;1.77;;;1.33;;
17631;SDS011;8934;51.194;17.150;2023-10-09T15:08:57;2.20;;;1.50;;
17631;SDS011;8934;51.194;17.150;2023-10-09T15:11:53;1.45;;;0.88;;
17631;SDS011;8934;51.194;17.150;2023-10-09T15:14:41;3.95;;;1.60;;
17631;SDS011;8934;51.194;17.150;2023-10-09T15:17:31;0.88;;;0.70;;
17631;SDS011;8934;51.194;17.150;2023-10-09T15:20:20;2.00;;;1.27;;
17631;SDS011;8934;51.194;17.150;2023-10-09T15:23:07;1.85;;;1.23;;
17631;SDS011;8934;51.194;17.150;2023-10-09T15:25:55;3.90;;;1.85;;
17631;SDS011;8934;51.194;17.150;2023-10-09T15:28:43;3.08;;;1.42;;
17631;SDS011;8934;51.194;17.150;2023-10-09T15:31:32;5.45;;;2.70;;
17631;SDS011;8934;51.194;17.150;2023-10-09T15:34:21;13.40;;;4.22;;
17631;SDS011;8934;51.194;17.150;2023-10-09T15:37:10;5.97;;;3.22;;
17631;SDS011;8934;51.194;17.150;2023-10-09T15:39:59;2.55;;;1.63;;
17631;SDS011;8934;51.194;17.150;2023-10-09T15:42:59;2.60;;;1.75;;
17631;SDS011;8934;51.194;17.150;2023-10-09T15:45:50;5.32;;;1.42;;
17631;SDS011;8934;51.194;17.150;2023-10-09T15:48:38;2.97;;;1.67;;
17631;SDS011;8934;51.194;17.150;2023-10-09T15:51:28;2.75;;;1.77;;
17631;SDS011;8934;51.194;17.150;2023-10-09T15:54:16;7.80;;;3.25;;
17631;SDS011;8934;51.194;17.150;2023-10-09T15:57:05;7.68;;;4.00;;
17631;SDS011;8934;51.194;17.150;2023-10-09T15:59:58;6.97;;;3.63;;
17631;SDS011;8934;51.194;17.150;2023-10-09T16:02:56;7.10;;;3.55;;
17631;SDS011;8934;51.194;17.150;2023-10-09T16:05:46;4.38;;;2.80;;
17631;SDS011;8934;51.194;17.150;2023-10-09T16:08:36;2.97;;;2.20;;
17631;SDS011;8934;51.194;17.150;2023-10-09T16:11:24;3.65;;;2.33;;
17631;SDS011;8934;51.194;17.150;2023-10-09T16:14:12;3.08;;;2.40;;
17631;SDS011;8934;51.194;17.150;2023-10-09T16:17:01;2.60;;;1.65;;
17631;SDS011;8934;51.194;17.150;2023-10-09T16:19:52;7.50;;;2.38;;
17631;SDS011;8934;51.194;17.150;2023-10-09T16:22:41;7.10;;;3.60;;
17631;SDS011;8934;51.194;17.150;2023-10-09T16:25:32;4.70;;;2.60;;
17631;SDS011;8934;51.194;17.150;2023-10-09T16:28:20;5.13;;;2.42;;
17631;SDS011;8934;51.194;17.150;2023-10-09T16:31:09;6.15;;;2.78;;
17631;SDS011;8934;51.194;17.150;2023-10-09T16:34:00;4.95;;;3.13;;
17631;SDS011;8934;51.194;17.150;2023-10-09T16:36:48;5.35;;;3.28;;
17631;SDS011;8934;51.194;17.150;2023-10-09T16:39:37;4.35;;;3.10;;
17631;SDS011;8934;51.194;17.150;2023-10-09T16:42:26;4.00;;;2.58;;
17631;SDS011;8934;51.194;17.150;2023-10-09T16:45:14;8.75;;;3.33;;
17631;SDS011;8934;51.194;17.150;2023-10-09T16:48:04;5.30;;;2.80;;
17631;SDS011;8934;51.194;17.150;2023-10-09T16:50:54;6.60;;;3.75;;
17631;SDS011;8934;51.194;17.150;2023-10-09T16:53:52;4.93;;;2.70;;
17631;SDS011;8934;51.194;17.150;2023-10-09T16:56:42;4.90;;;2.97;;
17631;SDS011;8934;51.194;17.150;2023-10-09T16:59:32;7.18;;;3.13;;
17631;SDS011;8934;51.194;17.150;2023-10-09T17:02:19;2.60;;;1.73;;
17631;SDS011;8934;51.194;17.150;2023-10-09T17:05:09;5.85;;;2.15;;
17631;SDS011;8934;51.194;17.150;2023-10-09T17:07:58;2.42;;;2.17;;
17631;SDS011;8934;51.194;17.150;2023-10-09T17:10:46;2.92;;;2.03;;
17631;SDS011;8934;51.194;17.150;2023-10-09T17:13:37;1.63;;;1.52;;
17631;SDS011;8934;51.194;17.150;2023-10-09T17:16:32;4.72;;;1.90;;
17631;SDS011;8934;51.194;17.150;2023-10-09T17:19:19;3.05;;;2.20;;
17631;SDS011;8934;51.194;17.150;2023-10-09T17:22:10;2.67;;;1.98;;
17631;SDS011;8934;51.194;17.150;2023-10-09T17:24:58;3.13;;;2.53;;
17631;SDS011;8934;51.194;17.150;2023-10-09T17:27:45;6.95;;;2.63;;
17631;SDS011;8934;51.194;17.150;2023-10-09T17:30:33;2.80;;;2.03;;
17631;SDS011;8934;51.194;17.150;2023-10-09T17:33:23;4.63;;;2.67;;
17631;SDS011;8934;51.194;17.150;2023-10-09T17:36:11;4.53;;;2.30;;
17631;SDS011;8934;51.194;17.150;2023-10-09T17:39:02;5.97;;;3.20;;
17631;SDS011;8934;51.194;17.150;2023-10-09T17:41:51;6.05;;;3.83;;
17631;SDS011;8934;51.194;17.150;2023-10-09T17:44:39;3.53;;;1.92;;
17631;SDS011;8934;51.194;17.150;2023-10-09T17:47:27;5.65;;;3.63;;